PWSweather.com
Personal Weather Stations
Station Observations

ChardChardGB

Lat: 50.877408, Lon: -2.94964741

Elevation: 341

Station Type: WS3083

http://www.merriott-astro.co.uk/weather/index.htm

High Low Average
Temperature 74.1°F23.4°C 48.2°F9.0°C 56.7°F13.7°C
Dew Point 53.4°F11.9°C 42.6°F5.9°C 46.8°F8.2°C
Winds 9.2 mph 14.8 kmh Calm Calm 3.0 mph E4.8 kmh E
Wind Gusts 11.4 mph18.3 kmh -- 4.0 mph6.4 kmh
Humidity 89% 43% 72%
Pressure 30.02 in1016.6 mb 29.76 in1007.8 mb -
Precipitation 0.01 in0.3 mm - -
Hour Temp Dew Point Humidity Winds Wind Gusts Pressure Precip Precip Rate Daily Precip Total
05:39 PM 48.2°F9.0°C 42.6°F5.9°C 81% Calm Calm -- 29.83 in1010.2 mb 0.00 in0.0 mm 0.00 in0.0 mm 0.00 in0.0 mm
05:40 PM 60.4°F15.8°C 51.0°F10.6°C 71% Calm Calm -- 29.96 in1014.6 mb 0.00 in0.0 mm 0.00 in0.0 mm 0.00 in0.0 mm
05:41 PM 72.7°F22.6°C 51.9°F11.1°C 48% 9.2 mph NE14.8 kmh NE 9.2 mph14.8 kmh 29.98 in1015.2 mb 0.00 in0.0 mm 0.00 in0.0 mm 0.00 in0.0 mm
05:42 PM 66.2°F19.0°C 49.1°F9.5°C 54% 3.8 mph NE6.1 kmh NE 3.8 mph6.1 kmh 30.02 in1016.6 mb 0.00 in0.0 mm 0.00 in0.0 mm 0.00 in0.0 mm
05:43 PM 48.2°F9.0°C 42.6°F5.9°C 81% Calm Calm -- 29.84 in1010.5 mb 0.00 in0.0 mm 0.00 in0.0 mm 0.00 in0.0 mm
05:50 PM 55.4°F13.0°C 44.6°F7.0°C 67% 7.2 mph SSW11.6 kmh SSW 10.7 mph17.2 kmh 29.78 in1008.5 mb 0.01 in0.3 mm 0.09 in2.3 mm 0.01 in0.3 mm
06:00 PM 55.0°F12.8°C 44.7°F7.1°C 68% 7.3 mph SSW11.7 kmh SSW 11.4 mph18.3 kmh 29.76 in1007.8 mb 0.01 in0.3 mm 0.00 in0.0 mm 0.01 in0.3 mm
06:10 PM 55.0°F12.8°C 44.7°F7.1°C 68% 5.1 mph S8.2 kmh S 9.2 mph14.8 kmh 29.77 in1008.1 mb 0.01 in0.3 mm 0.00 in0.0 mm 0.01 in0.3 mm
06:20 PM 54.9°F12.7°C 44.5°F6.9°C 68% 6.7 mph SW10.8 kmh SW 9.2 mph14.8 kmh 29.76 in1007.8 mb 0.01 in0.3 mm 0.00 in0.0 mm 0.01 in0.3 mm
06:30 PM 54.3°F12.4°C 45.1°F7.3°C 71% 7.0 mph S11.3 kmh S 10.7 mph17.2 kmh 29.77 in1008.1 mb 0.01 in0.3 mm 0.00 in0.0 mm 0.01 in0.3 mm
06:40 PM 54.1°F12.3°C 45.0°F7.2°C 71% 6.0 mph SSW9.7 kmh SSW 8.3 mph13.4 kmh 29.77 in1008.1 mb 0.01 in0.3 mm 0.00 in0.0 mm 0.01 in0.3 mm
06:50 PM 53.8°F12.1°C 44.6°F7.0°C 71% 6.6 mph S10.6 kmh S 9.8 mph15.8 kmh 29.77 in1008.1 mb 0.00 in0.0 mm 0.00 in0.0 mm 0.01 in0.3 mm
07:00 PM 53.4°F11.9°C 44.6°F7.0°C 72% 6.0 mph SSW9.7 kmh SSW 6.9 mph11.1 kmh 29.76 in1007.8 mb 0.00 in0.0 mm 0.00 in0.0 mm 0.01 in0.3 mm
07:10 PM 53.1°F11.7°C 44.3°F6.8°C 72% 7.1 mph SW11.4 kmh SW 9.2 mph14.8 kmh 29.76 in1007.8 mb 0.00 in0.0 mm 0.00 in0.0 mm 0.01 in0.3 mm
07:20 PM 52.9°F11.6°C 44.1°F6.7°C 72% 7.6 mph SSW12.2 kmh SSW 9.8 mph15.8 kmh 29.77 in1008.1 mb 0.00 in0.0 mm 0.00 in0.0 mm 0.01 in0.3 mm
07:30 PM 52.7°F11.5°C 44.3°F6.8°C 73% 6.4 mph S10.3 kmh S 9.8 mph15.8 kmh 29.77 in1008.1 mb 0.00 in0.0 mm 0.00 in0.0 mm 0.01 in0.3 mm
07:40 PM 52.7°F11.5°C 44.3°F6.8°C 73% 7.0 mph S11.3 kmh S 8.3 mph13.4 kmh 29.78 in1008.5 mb 0.00 in0.0 mm 0.00 in0.0 mm 0.01 in0.3 mm
07:50 PM 52.7°F11.5°C 44.7°F7.1°C 74% 5.9 mph S9.5 kmh S 8.3 mph13.4 kmh 29.78 in1008.5 mb 0.00 in0.0 mm 0.00 in0.0 mm 0.01 in0.3 mm
08:00 PM 52.7°F11.5°C 44.7°F7.1°C 74% 4.6 mph SW7.4 kmh SW 6.9 mph11.1 kmh 29.78 in1008.5 mb 0.00 in0.0 mm 0.00 in0.0 mm 0.01 in0.3 mm
08:10 PM 52.7°F11.5°C 45.0°F7.2°C 75% 4.0 mph S6.4 kmh S 6.0 mph9.7 kmh 29.78 in1008.5 mb 0.00 in0.0 mm 0.00 in0.0 mm 0.01 in0.3 mm
08:20 PM 52.5°F11.4°C 45.2°F7.3°C 76% 5.2 mph SSE8.4 kmh SSE 6.9 mph11.1 kmh 29.78 in1008.5 mb 0.00 in0.0 mm 0.00 in0.0 mm 0.01 in0.3 mm
08:30 PM 52.5°F11.4°C 45.2°F7.3°C 76% 4.5 mph SW7.2 kmh SW 6.0 mph9.7 kmh 29.78 in1008.5 mb 0.00 in0.0 mm 0.00 in0.0 mm 0.01 in0.3 mm
08:40 PM 52.3°F11.3°C 45.0°F7.2°C 76% 4.6 mph SSW7.4 kmh SSW 6.9 mph11.1 kmh 29.78 in1008.5 mb 0.00 in0.0 mm 0.00 in0.0 mm 0.01 in0.3 mm
08:50 PM 52.2°F11.2°C 44.8°F7.1°C 76% 5.0 mph S8.0 kmh S 6.9 mph11.1 kmh 29.78 in1008.5 mb 0.00 in0.0 mm 0.00 in0.0 mm 0.01 in0.3 mm
09:00 PM 52.2°F11.2°C 45.2°F7.3°C 77% 6.4 mph S10.3 kmh S 8.3 mph13.4 kmh 29.78 in1008.5 mb 0.00 in0.0 mm 0.00 in0.0 mm 0.01 in0.3 mm
09:10 PM 52.2°F11.2°C 45.5°F7.5°C 78% 4.7 mph S7.6 kmh S 7.6 mph12.2 kmh 29.78 in1008.5 mb 0.00 in0.0 mm 0.00 in0.0 mm 0.01 in0.3 mm
09:20 PM 52.2°F11.2°C 45.5°F7.5°C 78% 5.3 mph S8.5 kmh S 7.6 mph12.2 kmh 29.78 in1008.5 mb 0.00 in0.0 mm 0.00 in0.0 mm 0.01 in0.3 mm
09:30 PM 52.0°F11.1°C 45.7°F7.6°C 79% 5.0 mph S8.0 kmh S 6.9 mph11.1 kmh 29.78 in1008.5 mb 0.00 in0.0 mm 0.00 in0.0 mm 0.01 in0.3 mm
09:40 PM 52.0°F11.1°C 45.7°F7.6°C 79% 4.6 mph S7.4 kmh S 6.9 mph11.1 kmh 29.78 in1008.5 mb 0.00 in0.0 mm 0.00 in0.0 mm 0.01 in0.3 mm
09:50 PM 52.0°F11.1°C 45.7°F7.6°C 79% 5.6 mph S9.0 kmh S 8.3 mph13.4 kmh 29.78 in1008.5 mb 0.00 in0.0 mm 0.00 in0.0 mm 0.01 in0.3 mm
10:00 PM 51.8°F11.0°C 45.5°F7.5°C 79% 4.8 mph SSW7.7 kmh SSW 6.0 mph9.7 kmh 29.78 in1008.5 mb 0.00 in0.0 mm 0.00 in0.0 mm 0.01 in0.3 mm
10:10 PM 52.0°F11.1°C 46.0°F7.8°C 80% 4.8 mph S7.7 kmh S 6.9 mph11.1 kmh 29.77 in1008.1 mb 0.00 in0.0 mm 0.00 in0.0 mm 0.01 in0.3 mm
10:20 PM 52.0°F11.1°C 46.0°F7.8°C 80% 5.6 mph S9.0 kmh S 7.6 mph12.2 kmh 29.78 in1008.5 mb 0.00 in0.0 mm 0.00 in0.0 mm 0.01 in0.3 mm
10:30 PM 52.0°F11.1°C 46.0°F7.8°C 80% 4.7 mph SSW7.6 kmh SSW 6.0 mph9.7 kmh 29.78 in1008.5 mb 0.00 in0.0 mm 0.00 in0.0 mm 0.01 in0.3 mm
10:40 PM 51.8°F11.0°C 46.2°F7.9°C 81% 4.5 mph S7.2 kmh S 6.0 mph9.7 kmh 29.77 in1008.1 mb 0.00 in0.0 mm 0.00 in0.0 mm 0.01 in0.3 mm
10:50 PM 51.8°F11.0°C 46.2°F7.9°C 81% 4.7 mph SSW7.6 kmh SSW 7.6 mph12.2 kmh 29.77 in1008.1 mb 0.00 in0.0 mm 0.00 in0.0 mm 0.01 in0.3 mm
11:00 PM 51.8°F11.0°C 46.5°F8.1°C 82% 4.8 mph SSW7.7 kmh SSW 7.6 mph12.2 kmh 29.77 in1008.1 mb 0.00 in0.0 mm 0.00 in0.0 mm 0.01 in0.3 mm
11:10 PM 52.0°F11.1°C 47.0°F8.3°C 83% 3.0 mph SSW4.8 kmh SSW 7.6 mph12.2 kmh 29.77 in1008.1 mb 0.00 in0.0 mm 0.00 in0.0 mm 0.01 in0.3 mm
11:20 PM 52.9°F11.6°C 47.5°F8.6°C 82% 6.7 mph SW10.8 kmh SW 11.4 mph18.3 kmh 29.77 in1008.1 mb 0.00 in0.0 mm 0.00 in0.0 mm 0.01 in0.3 mm
11:30 PM 53.2°F11.8°C 47.6°F8.7°C 81% 5.6 mph WSW9.0 kmh WSW 9.8 mph15.8 kmh 29.77 in1008.1 mb 0.00 in0.0 mm 0.00 in0.0 mm 0.01 in0.3 mm
11:40 PM 53.2°F11.8°C 47.2°F8.4°C 80% 4.2 mph SSW6.8 kmh SSW 8.3 mph13.4 kmh 29.77 in1008.1 mb 0.00 in0.0 mm 0.00 in0.0 mm 0.01 in0.3 mm
11:50 PM 53.2°F11.8°C 47.2°F8.4°C 80% 4.0 mph SSW6.4 kmh SSW 6.9 mph11.1 kmh 29.77 in1008.1 mb 0.00 in0.0 mm 0.00 in0.0 mm 0.01 in0.3 mm